Time,TemperatureF,DewpointF,PressureIn,WindDirection,WindDirectionDegrees,WindSpeedMPH,WindSpeedGustMPH,Humidity,HourlyPrecipIn,Conditions,Clouds,dailyrainin,SoftwareType,DateUTC
2013-04-01 00:03:00,31.0,20.9,29.43,NNW,338,5.1,5.1,66,0.00,,,0.00,WUHU216HW,2013-04-01 05:03:00,
2013-04-01 00:08:00,30.8,20.7,29.43,NW,315,3.8,6.0,66,0.00,,,0.00,WUHU216HW,2013-04-01 05:08:00,
2013-04-01 00:13:00,30.8,20.7,29.43,NNW,338,4.3,7.2,66,0.00,,,0.00,WUHU216HW,2013-04-01 05:13:00,
2013-04-01 00:18:00,30.6,20.5,29.43,NNW,338,2.7,7.2,66,0.00,,,0.00,WUHU216HW,2013-04-01 05:18:00,
2013-04-01 00:23:00,30.4,20.3,29.43,NNW,338,3.8,4.3,66,0.00,,,0.00,WUHU216HW,2013-04-01 05:23:00,
2013-04-01 00:28:00,30.2,20.2,29.44,NNW,338,5.6,5.6,66,0.00,,,0.00,WUHU216HW,2013-04-01 05:28:00,
2013-04-01 00:33:00,30.2,20.2,29.44,North,0,3.4,5.6,66,0.00,,,0.00,WUHU216HW,2013-04-01 05:33:00,
2013-04-01 00:38:00,30.1,20.0,29.44,NNW,338,4.5,5.6,66,0.00,,,0.00,WUHU216HW,2013-04-01 05:38:00,
2013-04-01 00:43:00,29.9,19.4,29.44,NW,315,4.7,5.4,65,0.00,,,0.00,WUHU216HW,2013-04-01 05:43:00,
2013-04-01 00:48:00,29.9,19.4,29.45,NNW,338,4.5,6.3,65,0.00,,,0.00,WUHU216HW,2013-04-01 05:48:00,
2013-04-01 00:53:00,29.7,19.7,29.45,NNW,338,2.7,6.3,66,0.00,,,0.00,WUHU216HW,2013-04-01 05:53:00,
2013-04-01 00:58:00,29.5,19.5,29.45,NNW,338,3.4,4.7,66,0.00,,,0.00,WUHU216HW,2013-04-01 05:58:00,
2013-04-01 01:03:00,29.5,19.5,29.45,NNW,338,3.8,7.8,66,0.00,,,0.00,WUHU216HW,2013-04-01 06:03:00,
2013-04-01 01:08:00,29.5,19.5,29.45,North,0,2.7,7.8,66,0.00,,,0.00,WUHU216HW,2013-04-01 06:08:00,
2013-04-01 01:13:00,29.3,19.4,29.45,NNW,338,4.9,4.9,66,0.00,,,0.00,WUHU216HW,2013-04-01 06:13:00,
2013-04-01 01:18:00,29.3,19.4,29.45,North,0,2.5,5.4,66,0.00,,,0.00,WUHU216HW,2013-04-01 06:18:00,
2013-04-01 01:23:00,29.2,19.5,29.45,NNW,338,1.8,5.4,67,0.00,,,0.00,WUHU216HW,2013-04-01 06:23:00,
2013-04-01 01:28:00,29.0,19.4,29.45,NNW,338,1.8,2.5,67,0.00,,,0.00,WUHU216HW,2013-04-01 06:28:00,
2013-04-01 01:33:00,29.0,19.7,29.45,NNW,338,3.4,3.4,68,0.00,,,0.00,WUHU216HW,2013-04-01 06:33:00,
2013-04-01 01:38:00,28.8,20.0,29.46,North,0,2.0,3.4,69,0.00,,,0.00,WUHU216HW,2013-04-01 06:38:00,
2013-04-01 01:43:00,28.6,19.8,29.46,NNW,338,1.8,3.4,69,0.00,,,0.00,WUHU216HW,2013-04-01 06:43:00,
2013-04-01 01:48:00,28.6,19.8,29.46,NNW,338,2.5,2.5,69,0.00,,,0.00,WUHU216HW,2013-04-01 06:48:00,
2013-04-01 01:53:00,28.6,19.8,29.46,NW,315,3.6,4.7,69,0.00,,,0.00,WUHU216HW,2013-04-01 06:53:00,
2013-04-01 01:58:00,28.4,19.6,29.47,NW,315,4.3,5.4,69,0.00,,,0.00,WUHU216HW,2013-04-01 06:58:00,
2013-04-01 02:03:00,28.4,19.6,29.47,NW,315,7.4,7.6,69,0.00,,,0.00,WUHU216HW,2013-04-01 07:03:00,
2013-04-01 02:08:00,28.3,19.8,29.47,NNW,338,4.7,8.3,70,0.00,,,0.00,WUHU216HW,2013-04-01 07:08:00,
2013-04-01 02:13:00,28.1,19.6,29.47,NNW,338,3.4,8.3,70,0.00,,,0.00,WUHU216HW,2013-04-01 07:13:00,
2013-04-01 02:18:00,27.9,19.7,29.47,NNW,338,4.5,4.9,71,0.00,,,0.00,WUHU216HW,2013-04-01 07:18:00,
2013-04-01 02:23:00,27.9,20.1,29.47,NW,315,2.9,4.9,72,0.00,,,0.00,WUHU216HW,2013-04-01 07:23:00,
2013-04-01 02:28:00,27.9,20.1,29.47,North,0,3.4,4.7,72,0.00,,,0.00,WUHU216HW,2013-04-01 07:28:00,
2013-04-01 02:33:00,27.9,20.3,29.48,NNW,338,2.9,4.3,73,0.00,,,0.00,WUHU216HW,2013-04-01 07:33:00,
2013-04-01 02:38:00,27.9,20.3,29.48,NNW,338,3.6,4.7,73,0.00,,,0.00,WUHU216HW,2013-04-01 07:38:00,
2013-04-01 02:43:00,27.9,20.3,29.48,NNW,338,3.1,4.7,73,0.00,,,0.00,WUHU216HW,2013-04-01 07:43:00,
2013-04-01 02:48:00,27.9,20.3,29.48,NNW,338,4.3,4.7,73,0.00,,,0.00,WUHU216HW,2013-04-01 07:48:00,
2013-04-01 02:53:00,27.7,20.2,29.48,NW,315,3.1,4.3,73,0.00,,,0.00,WUHU216HW,2013-04-01 07:53:00,
2013-04-01 02:58:00,27.7,20.2,29.48,NW,315,1.6,4.3,73,0.00,,,0.00,WUHU216HW,2013-04-01 07:58:00,
2013-04-01 03:03:00,27.7,20.5,29.48,NW,315,3.1,3.4,74,0.00,,,0.00,WUHU216HW,2013-04-01 08:03:00,
2013-04-01 03:08:00,27.7,20.5,29.49,NNW,338,1.6,3.4,74,0.00,,,0.00,WUHU216HW,2013-04-01 08:08:00,
2013-04-01 03:13:00,27.7,20.5,29.49,NNW,338,1.6,3.1,74,0.00,,,0.00,WUHU216HW,2013-04-01 08:13:00,
2013-04-01 03:18:00,27.7,20.5,29.49,NNW,338,2.5,2.7,74,0.00,,,0.00,WUHU216HW,2013-04-01 08:18:00,
2013-04-01 03:23:00,27.7,20.8,29.49,NNE,23,2.5,2.5,75,0.00,,,0.00,WUHU216HW,2013-04-01 08:23:00,
2013-04-01 03:28:00,27.7,20.8,29.49,NNW,338,2.5,3.6,75,0.00,,,0.00,WUHU216HW,2013-04-01 08:28:00,
2013-04-01 03:33:00,27.7,20.8,29.49,North,0,4.0,4.0,75,0.00,,,0.00,WUHU216HW,2013-04-01 08:33:00,
2013-04-01 03:38:00,27.5,20.4,29.50,NNE,23,6.3,6.3,74,0.00,,,0.00,WUHU216HW,2013-04-01 08:38:00,
2013-04-01 03:43:00,27.5,20.4,29.50,NNW,338,2.0,6.3,74,0.00,,,0.00,WUHU216HW,2013-04-01 08:43:00,
2013-04-01 03:48:00,27.4,19.5,29.50,NNW,338,3.8,4.7,72,0.00,,,0.00,WUHU216HW,2013-04-01 08:48:00,
2013-04-01 03:53:00,27.4,19.2,29.50,North,0,4.0,5.8,71,0.00,,,0.00,WUHU216HW,2013-04-01 08:53:00,
2013-04-01 03:58:00,27.4,19.2,29.50,NNW,338,3.6,5.8,71,0.00,,,0.00,WUHU216HW,2013-04-01 08:58:00,
2013-04-01 04:03:00,27.4,18.9,29.50,NNW,338,2.7,5.4,70,0.00,,,0.00,WUHU216HW,2013-04-01 09:03:00,
2013-04-01 04:08:00,27.2,17.6,29.51,North,0,3.6,5.4,67,0.00,,,0.00,WUHU216HW,2013-04-01 09:08:00,
2013-04-01 04:13:00,27.0,16.4,29.51,NW,315,3.8,6.3,64,0.00,,,0.00,WUHU216HW,2013-04-01 09:13:00,
2013-04-01 04:18:00,27.0,15.7,29.51,North,0,5.1,6.3,62,0.00,,,0.00,WUHU216HW,2013-04-01 09:18:00,
2013-04-01 04:23:00,26.8,15.5,29.51,West,270,3.8,5.8,62,0.00,,,0.00,WUHU216HW,2013-04-01 09:23:00,
2013-04-01 04:28:00,26.6,15.3,29.52,North,0,4.7,5.8,62,0.00,,,0.00,WUHU216HW,2013-04-01 09:28:00,
2013-04-01 04:33:00,26.5,15.1,29.52,NNW,338,4.0,4.7,62,0.00,,,0.00,WUHU216HW,2013-04-01 09:33:00,
2013-04-01 04:38:00,26.5,15.5,29.52,NNW,338,3.1,4.7,63,0.00,,,0.00,WUHU216HW,2013-04-01 09:38:00,
2013-04-01 04:43:00,26.3,15.3,29.52,NNW,338,2.7,4.7,63,0.00,,,0.00,WUHU216HW,2013-04-01 09:43:00,
2013-04-01 04:48:00,26.3,15.3,29.52,NW,315,3.1,4.7,63,0.00,,,0.00,WUHU216HW,2013-04-01 09:48:00,
2013-04-01 04:53:00,26.1,15.5,29.52,NNW,338,3.8,3.8,64,0.00,,,0.00,WUHU216HW,2013-04-01 09:53:00,
2013-04-01 04:58:00,26.1,15.5,29.53,NW,315,1.8,3.8,64,0.00,,,0.00,WUHU216HW,2013-04-01 09:58:00,
2013-04-01 05:03:00,25.9,15.3,29.53,NW,315,2.5,3.8,64,0.00,,,0.00,WUHU216HW,2013-04-01 10:03:00,
2013-04-01 05:08:00,25.9,15.3,29.53,NW,315,2.5,2.5,64,0.00,,,0.00,WUHU216HW,2013-04-01 10:08:00,
2013-04-01 05:13:00,25.7,15.2,29.53,NNW,338,1.8,2.5,64,0.00,,,0.00,WUHU216HW,2013-04-01 10:13:00,
2013-04-01 05:18:00,25.6,15.4,29.53,NNW,338,1.1,2.9,65,0.00,,,0.00,WUHU216HW,2013-04-01 10:18:00,
2013-04-01 05:23:00,25.6,15.7,29.54,North,0,1.6,2.9,66,0.00,,,0.00,WUHU216HW,2013-04-01 10:23:00,
2013-04-01 05:28:00,25.4,16.2,29.54,NNW,338,3.1,3.1,68,0.00,,,0.00,WUHU216HW,2013-04-01 10:28:00,
2013-04-01 05:33:00,25.4,16.6,29.54,North,0,1.8,3.4,69,0.00,,,0.00,WUHU216HW,2013-04-01 10:33:00,
2013-04-01 05:38:00,25.2,16.7,29.54,NNW,338,1.6,3.4,70,0.00,,,0.00,WUHU216HW,2013-04-01 10:38:00,
2013-04-01 05:43:00,25.2,16.7,29.55,North,0,3.4,3.4,70,0.00,,,0.00,WUHU216HW,2013-04-01 10:43:00,
2013-04-01 05:48:00,25.0,16.6,29.55,NNW,338,2.7,4.0,70,0.00,,,0.00,WUHU216HW,2013-04-01 10:48:00,
2013-04-01 05:53:00,24.8,16.4,29.55,NW,315,2.0,4.0,70,0.00,,,0.00,WUHU216HW,2013-04-01 10:53:00,
2013-04-01 05:58:00,24.8,16.4,29.55,NNW,338,2.5,2.9,70,0.00,,,0.00,WUHU216HW,2013-04-01 10:58:00,
2013-04-01 06:03:00,24.8,16.4,29.55,NNW,338,1.1,2.9,70,0.00,,,0.00,WUHU216HW,2013-04-01 11:03:00,
2013-04-01 06:08:00,24.7,16.2,29.56,NNW,338,2.5,3.4,70,0.00,,,0.00,WUHU216HW,2013-04-01 11:08:00,
2013-04-01 06:13:00,24.5,16.0,29.56,NW,315,4.0,4.0,70,0.00,,,0.00,WUHU216HW,2013-04-01 11:13:00,
2013-04-01 06:18:00,24.5,16.4,29.56,NNW,338,3.1,4.0,71,0.00,,,0.00,WUHU216HW,2013-04-01 11:18:00,
2013-04-01 06:23:00,24.3,16.2,29.56,NNW,338,3.8,4.0,71,0.00,,,0.00,WUHU216HW,2013-04-01 11:23:00,
2013-04-01 06:28:00,24.3,15.9,29.56,NNW,338,3.4,3.8,70,0.00,,,0.00,WUHU216HW,2013-04-01 11:28:00,
2013-04-01 06:33:00,24.3,15.9,29.56,NNW,338,2.0,3.8,70,0.00,,,0.00,WUHU216HW,2013-04-01 11:33:00,
2013-04-01 06:38:00,24.3,15.6,29.56,NW,315,4.0,4.0,69,0.00,,,0.00,WUHU216HW,2013-04-01 11:38:00,
2013-04-01 06:43:00,24.1,15.4,29.57,NW,315,3.8,4.3,69,0.00,,,0.00,WUHU216HW,2013-04-01 11:43:00,
2013-04-01 06:48:00,24.1,15.4,29.57,NW,315,4.0,4.5,69,0.00,,,0.00,WUHU216HW,2013-04-01 11:48:00,
2013-04-01 06:53:00,24.1,15.0,29.57,NNW,338,3.4,4.9,68,0.00,,,0.00,WUHU216HW,2013-04-01 11:53:00,
2013-04-01 06:58:00,24.3,15.2,29.58,NW,315,2.9,4.9,68,0.00,,,0.00,WUHU216HW,2013-04-01 11:58:00,
2013-04-01 07:03:00,24.1,15.4,29.58,NNW,338,4.7,4.7,69,0.00,,,0.00,WUHU216HW,2013-04-01 12:03:00,
2013-04-01 07:08:00,24.3,15.2,29.58,NW,315,6.0,6.0,68,0.00,,,0.00,WUHU216HW,2013-04-01 12:08:00,
2013-04-01 07:13:00,24.3,15.6,29.59,NW,315,4.3,6.0,69,0.00,,,0.00,WUHU216HW,2013-04-01 12:13:00,
2013-04-01 07:18:00,24.5,15.8,29.59,NNW,338,6.9,6.9,69,0.00,,,0.00,WUHU216HW,2013-04-01 12:18:00,
2013-04-01 07:23:00,24.5,15.4,29.59,NNW,338,3.4,6.9,68,0.00,,,0.00,WUHU216HW,2013-04-01 12:23:00,
2013-04-01 07:28:00,24.7,15.6,29.59,NW,315,2.5,6.9,68,0.00,,,0.00,WUHU216HW,2013-04-01 12:28:00,
2013-04-01 07:33:00,24.8,15.7,29.59,NW,315,8.7,8.7,68,0.00,,,0.00,WUHU216HW,2013-04-01 12:33:00,
2013-04-01 07:38:00,25.2,15.7,29.60,WNW,293,3.4,8.7,67,0.00,,,0.00,WUHU216HW,2013-04-01 12:38:00,
2013-04-01 07:43:00,25.4,15.6,29.60,NNW,338,4.3,8.7,66,0.00,,,0.00,WUHU216HW,2013-04-01 12:43:00,
2013-04-01 07:48:00,25.6,15.7,29.60,NNW,338,4.7,4.7,66,0.00,,,0.00,WUHU216HW,2013-04-01 12:48:00,
2013-04-01 07:54:00,25.9,16.0,29.60,NW,315,4.9,7.4,66,0.00,,,0.00,WUHU216HW,2013-04-01 12:54:00,
2013-04-01 07:58:00,25.7,15.8,29.61,NNW,338,4.9,7.4,66,0.00,,,0.00,WUHU216HW,2013-04-01 12:58:00,
2013-04-01 08:03:00,25.6,15.7,29.61,NW,315,6.3,6.9,66,0.00,,,0.00,WUHU216HW,2013-04-01 13:03:00,
2013-04-01 08:09:00,25.6,16.0,29.61,North,0,6.9,8.3,67,0.00,,,0.00,WUHU216HW,2013-04-01 13:09:00,
2013-04-01 08:13:00,25.4,15.8,29.61,NW,315,5.8,11.0,67,0.00,,,0.00,WUHU216HW,2013-04-01 13:13:00,
2013-04-01 08:18:00,25.4,15.8,29.61,NNW,338,5.4,11.0,67,0.00,,,0.00,WUHU216HW,2013-04-01 13:18:00,
2013-04-01 08:23:00,25.6,15.7,29.61,North,0,4.9,9.8,66,0.00,,,0.00,WUHU216HW,2013-04-01 13:23:00,
2013-04-01 08:28:00,25.7,15.6,29.61,NNW,338,4.5,9.8,65,0.00,,,0.00,WUHU216HW,2013-04-01 13:28:00,
2013-04-01 08:34:00,25.9,15.3,29.61,NNW,338,6.5,8.7,64,0.00,,,0.00,WUHU216HW,2013-04-01 13:34:00,
2013-04-01 08:39:00,25.7,15.2,29.61,NNW,338,5.6,7.8,64,0.00,,,0.00,WUHU216HW,2013-04-01 13:39:00,
2013-04-01 08:44:00,25.9,15.0,29.61,NW,315,7.8,12.5,63,0.00,,,0.00,WUHU216HW,2013-04-01 13:44:00,
2013-04-01 08:48:00,25.9,14.7,29.62,NNW,338,5.4,12.5,62,0.00,,,0.00,WUHU216HW,2013-04-01 13:48:00,
2013-04-01 08:54:00,26.1,14.8,29.61,NW,315,6.9,11.4,62,0.00,,,0.00,WUHU216HW,2013-04-01 13:54:00,
2013-04-01 08:58:00,26.3,14.6,29.61,NNW,338,13.4,13.4,61,0.00,,,0.00,WUHU216HW,2013-04-01 13:58:00,
2013-04-01 09:04:00,26.1,13.7,29.61,NNW,338,5.4,13.4,59,0.00,,,0.00,WUHU216HW,2013-04-01 14:04:00,
2013-04-01 09:09:00,26.3,14.2,29.62,NW,315,6.7,13.4,60,0.00,,,0.00,WUHU216HW,2013-04-01 14:09:00,
2013-04-01 09:14:00,26.3,13.9,29.62,NW,315,5.4,8.3,59,0.00,,,0.00,WUHU216HW,2013-04-01 14:14:00,
2013-04-01 09:19:00,26.3,13.4,29.62,North,0,4.9,9.2,58,0.00,,,0.00,WUHU216HW,2013-04-01 14:19:00,
2013-04-01 09:24:00,26.3,13.9,29.62,WNW,293,6.3,9.2,59,0.00,,,0.00,WUHU216HW,2013-04-01 14:24:00,
2013-04-01 09:29:00,26.6,14.1,29.62,NW,315,9.2,9.2,59,0.00,,,0.00,WUHU216HW,2013-04-01 14:29:00,
2013-04-01 09:34:00,27.0,14.5,29.62,NW,315,6.3,9.4,59,0.00,,,0.00,WUHU216HW,2013-04-01 14:34:00,
2013-04-01 09:39:00,26.8,14.0,29.62,NW,315,7.8,9.4,58,0.00,,,0.00,WUHU216HW,2013-04-01 14:39:00,
2013-04-01 09:44:00,27.0,14.1,29.63,NNW,338,8.5,12.3,58,0.00,,,0.00,WUHU216HW,2013-04-01 14:44:00,
2013-04-01 09:49:00,27.0,13.7,29.63,NW,315,9.2,12.3,57,0.00,,,0.00,WUHU216HW,2013-04-01 14:49:00,
2013-04-01 09:54:00,26.8,13.5,29.62,NW,315,9.8,9.8,57,0.00,,,0.00,WUHU216HW,2013-04-01 14:54:00,
2013-04-01 09:59:00,27.0,13.7,29.63,NW,315,5.6,9.8,57,0.00,,,0.00,WUHU216HW,2013-04-01 14:59:00,
2013-04-01 10:04:00,27.0,14.1,29.63,NW,315,9.8,9.8,58,0.00,,,0.00,WUHU216HW,2013-04-01 15:04:00,
2013-04-01 10:09:00,27.0,13.7,29.63,WNW,293,4.5,9.8,57,0.00,,,0.00,WUHU216HW,2013-04-01 15:09:00,
2013-04-01 10:14:00,27.2,13.9,29.63,NW,315,8.5,9.8,57,0.00,,,0.00,WUHU216HW,2013-04-01 15:14:00,
2013-04-01 10:19:00,27.5,14.2,29.63,North,0,4.7,10.1,57,0.00,,,0.00,WUHU216HW,2013-04-01 15:19:00,
2013-04-01 10:24:00,27.5,14.7,29.63,NW,315,11.4,11.4,58,0.00,,,0.00,WUHU216HW,2013-04-01 15:24:00,
2013-04-01 10:29:00,27.7,14.1,29.63,WSW,248,6.5,11.4,56,0.00,,,0.00,WUHU216HW,2013-04-01 15:29:00,
2013-04-01 10:34:00,27.7,14.4,29.63,NW,315,7.6,11.4,57,0.00,,,0.00,WUHU216HW,2013-04-01 15:34:00,
2013-04-01 10:39:00,27.9,14.2,29.63,NW,315,7.4,10.3,56,0.00,,,0.00,WUHU216HW,2013-04-01 15:39:00,
2013-04-01 10:44:00,27.9,14.6,29.63,NW,315,7.8,11.0,57,0.00,,,0.00,WUHU216HW,2013-04-01 15:44:00,
2013-04-01 10:49:00,27.9,14.6,29.63,NW,315,6.3,11.0,57,0.00,,,0.00,WUHU216HW,2013-04-01 15:49:00,
2013-04-01 10:54:00,28.4,15.1,29.63,NNW,338,5.4,10.5,57,0.00,,,0.00,WUHU216HW,2013-04-01 15:54:00,
2013-04-01 10:59:00,29.0,14.4,29.63,NNW,338,6.3,11.2,54,0.00,,,0.00,WUHU216HW,2013-04-01 15:59:00,
2013-04-01 11:04:00,28.6,13.7,29.63,NNW,338,8.7,11.6,53,0.00,,,0.00,WUHU216HW,2013-04-01 16:04:00,
2013-04-01 11:09:00,29.2,14.1,29.63,NNW,338,4.3,13.4,53,0.00,,,0.00,WUHU216HW,2013-04-01 16:09:00,
2013-04-01 11:14:00,29.2,14.1,29.63,NNW,338,5.4,13.4,53,0.00,,,0.00,WUHU216HW,2013-04-01 16:14:00,
2013-04-01 11:19:00,29.2,14.9,29.63,NNW,338,8.9,13.4,55,0.00,,,0.00,WUHU216HW,2013-04-01 16:19:00,
2013-04-01 11:24:00,28.8,14.2,29.63,NNW,338,8.7,12.1,54,0.00,,,0.00,WUHU216HW,2013-04-01 16:24:00,
2013-04-01 11:29:00,29.0,14.8,29.63,NNW,338,7.2,10.7,55,0.00,,,0.00,WUHU216HW,2013-04-01 16:29:00,
2013-04-01 11:34:00,29.2,14.9,29.63,NW,315,10.7,10.7,55,0.00,,,0.00,WUHU216HW,2013-04-01 16:34:00,
2013-04-01 11:39:00,29.5,14.5,29.64,NW,315,6.9,10.7,53,0.00,,,0.00,WUHU216HW,2013-04-01 16:39:00,
2013-04-01 11:44:00,29.9,14.8,29.63,NW,315,3.4,11.2,53,0.00,,,0.00,WUHU216HW,2013-04-01 16:44:00,
2013-04-01 11:49:00,30.1,14.9,29.63,WNW,293,9.8,12.1,53,0.00,,,0.00,WUHU216HW,2013-04-01 16:49:00,
2013-04-01 11:54:00,30.2,15.5,29.63,NNW,338,12.1,12.1,54,0.00,,,0.00,WUHU216HW,2013-04-01 16:54:00,
2013-04-01 11:59:00,30.1,14.9,29.63,NW,315,6.9,12.1,53,0.00,,,0.00,WUHU216HW,2013-04-01 16:59:00,
2013-04-01 12:04:00,29.9,14.8,29.63,West,270,6.5,12.1,53,0.00,,,0.00,WUHU216HW,2013-04-01 17:04:00,
2013-04-01 12:09:00,30.6,15.8,29.63,NNW,338,14.3,14.3,54,0.00,,,0.00,WUHU216HW,2013-04-01 17:09:00,
2013-04-01 12:14:00,30.6,15.5,29.63,West,270,5.4,14.3,53,0.00,,,0.00,WUHU216HW,2013-04-01 17:14:00,
2013-04-01 12:19:00,31.0,15.8,29.63,NW,315,9.8,14.3,53,0.00,,,0.00,WUHU216HW,2013-04-01 17:19:00,
2013-04-01 12:24:00,30.4,14.9,29.63,NW,315,5.8,13.4,52,0.00,,,0.00,WUHU216HW,2013-04-01 17:24:00,
2013-04-01 12:29:00,30.2,14.7,29.63,NW,315,10.5,12.5,52,0.00,,,0.00,WUHU216HW,2013-04-01 17:29:00,
2013-04-01 12:34:00,30.8,15.2,29.63,NW,315,8.5,14.1,52,0.00,,,0.00,WUHU216HW,2013-04-01 17:34:00,
2013-04-01 12:39:00,30.6,15.0,29.63,NW,315,15.4,15.4,52,0.00,,,0.00,WUHU216HW,2013-04-01 17:39:00,
2013-04-01 12:44:00,30.2,14.7,29.63,NNW,338,5.4,15.4,52,0.00,,,0.00,WUHU216HW,2013-04-01 17:44:00,
2013-04-01 12:49:00,30.6,15.5,29.63,NW,315,11.4,15.4,53,0.00,,,0.00,WUHU216HW,2013-04-01 17:49:00,
2013-04-01 12:54:00,31.0,15.8,29.63,NW,315,8.5,12.8,53,0.00,,,0.00,WUHU216HW,2013-04-01 17:54:00,
2013-04-01 12:59:00,31.3,16.1,29.63,NW,315,8.1,13.4,53,0.00,,,0.00,WUHU216HW,2013-04-01 17:59:00,
2013-04-01 13:04:00,32.0,16.4,29.63,NW,315,13.6,14.1,52,0.00,,,0.00,WUHU216HW,2013-04-01 18:04:00,
2013-04-01 13:09:00,32.2,16.5,29.63,NW,315,2.9,14.1,52,0.00,,,0.00,WUHU216HW,2013-04-01 18:09:00,
2013-04-01 13:14:00,32.8,17.0,29.63,NW,315,9.2,13.6,52,0.00,,,0.00,WUHU216HW,2013-04-01 18:14:00,
2013-04-01 13:19:00,32.8,17.5,29.63,West,270,7.4,11.6,53,0.00,,,0.00,WUHU216HW,2013-04-01 18:19:00,
2013-04-01 13:24:00,32.6,16.8,29.63,NW,315,8.5,11.2,52,0.00,,,0.00,WUHU216HW,2013-04-01 18:24:00,
2013-04-01 13:29:00,32.4,16.7,29.63,NW,315,9.8,10.3,52,0.00,,,0.00,WUHU216HW,2013-04-01 18:29:00,
2013-04-01 13:34:00,32.8,17.5,29.63,WNW,293,8.7,9.8,53,0.00,,,0.00,WUHU216HW,2013-04-01 18:34:00,
2013-04-01 13:39:00,32.9,16.8,29.63,NNW,338,12.1,12.1,51,0.00,,,0.00,WUHU216HW,2013-04-01 18:39:00,
2013-04-01 13:44:00,32.2,16.5,29.63,NW,315,12.8,12.8,52,0.00,,,0.00,WUHU216HW,2013-04-01 18:44:00,
2013-04-01 13:49:00,32.2,16.9,29.63,WSW,248,5.8,14.5,53,0.00,,,0.00,WUHU216HW,2013-04-01 18:49:00,
2013-04-01 13:54:00,33.5,18.1,29.63,WNW,293,11.2,14.5,53,0.00,,,0.00,WUHU216HW,2013-04-01 18:54:00,
2013-04-01 13:59:00,33.3,17.0,29.63,NW,315,12.5,13.4,51,0.00,,,0.00,WUHU216HW,2013-04-01 18:59:00,
2013-04-01 14:04:00,33.1,16.5,29.63,NNW,338,8.1,15.2,50,0.00,,,0.00,WUHU216HW,2013-04-01 19:04:00,
2013-04-01 14:09:00,33.5,17.2,29.63,NW,315,4.3,15.7,51,0.00,,,0.00,WUHU216HW,2013-04-01 19:09:00,
2013-04-01 14:14:00,34.2,18.4,29.62,NNW,338,7.4,15.7,52,0.00,,,0.00,WUHU216HW,2013-04-01 19:14:00,
2013-04-01 14:19:00,34.4,18.1,29.62,WSW,248,11.2,11.2,51,0.00,,,0.00,WUHU216HW,2013-04-01 19:19:00,
2013-04-01 14:24:00,33.7,17.4,29.62,West,270,14.3,14.3,51,0.00,,,0.00,WUHU216HW,2013-04-01 19:24:00,
2013-04-01 14:29:00,33.7,17.8,29.62,NW,315,11.2,15.0,52,0.00,,,0.00,WUHU216HW,2013-04-01 19:29:00,
2013-04-01 14:34:00,33.8,17.1,29.62,NNW,338,7.6,15.0,50,0.00,,,0.00,WUHU216HW,2013-04-01 19:34:00,
2013-04-01 14:39:00,33.8,17.1,29.62,NNW,338,7.6,11.2,50,0.00,,,0.00,WUHU216HW,2013-04-01 19:39:00,
2013-04-01 14:44:00,33.8,17.1,29.62,NNW,338,7.6,7.6,50,0.00,,,0.00,WUHU216HW,2013-04-01 19:44:00,
2013-04-01 15:00:00,33.8,16.6,29.62,NW,315,10.7,10.7,49,0.00,,,0.00,WUHU216HW,2013-04-01 20:00:00,
2013-04-01 15:05:00,33.8,16.6,29.62,NW,315,10.7,10.7,49,0.00,,,0.00,WUHU216HW,2013-04-01 20:05:00,
2013-04-01 15:30:00,34.9,16.7,29.61,NW,315,8.7,8.7,47,0.00,,,0.00,WUHU216HW,2013-04-01 20:30:00,
2013-04-01 15:35:00,34.9,16.7,29.61,WNW,293,5.8,8.7,47,0.00,,,0.00,WUHU216HW,2013-04-01 20:35:00,
2013-04-01 15:40:00,34.9,16.1,29.61,NNW,338,9.6,12.8,46,0.00,,,0.00,WUHU216HW,2013-04-01 20:40:00,
2013-04-01 15:45:00,35.6,16.8,29.61,NW,315,15.4,15.4,46,0.00,,,0.00,WUHU216HW,2013-04-01 20:45:00,
2013-04-01 15:50:00,35.6,15.8,29.61,WNW,293,13.0,15.4,44,0.00,,,0.00,WUHU216HW,2013-04-01 20:50:00,
2013-04-01 15:55:00,35.5,16.1,29.61,NW,315,18.8,18.8,45,0.00,,,0.00,WUHU216HW,2013-04-01 20:55:00,
2013-04-01 16:00:00,35.6,16.3,29.61,NW,315,12.1,18.8,45,0.00,,,0.00,WUHU216HW,2013-04-01 21:00:00,
2013-04-01 16:05:00,35.6,15.8,29.61,WNW,293,13.4,18.8,44,0.00,,,0.00,WUHU216HW,2013-04-01 21:05:00,
2013-04-01 16:10:00,35.6,15.8,29.61,NW,315,10.5,16.1,44,0.00,,,0.00,WUHU216HW,2013-04-01 21:10:00,
2013-04-01 16:15:00,35.5,15.1,29.61,West,270,16.8,16.8,43,0.00,,,0.00,WUHU216HW,2013-04-01 21:15:00,
2013-04-01 16:20:00,35.3,15.4,29.61,NE,45,11.4,16.8,44,0.00,,,0.00,WUHU216HW,2013-04-01 21:20:00,
2013-04-01 16:25:00,35.1,15.8,29.61,NW,315,11.4,16.8,45,0.00,,,0.00,WUHU216HW,2013-04-01 21:25:00,
2013-04-01 16:30:00,34.9,15.1,29.61,NW,315,6.3,11.4,44,0.00,,,0.00,WUHU216HW,2013-04-01 21:30:00,
2013-04-01 16:35:00,35.1,15.8,29.61,NNW,338,11.9,14.1,45,0.00,,,0.00,WUHU216HW,2013-04-01 21:35:00,
2013-04-01 16:40:00,35.5,15.6,29.61,WNW,293,12.1,14.1,44,0.00,,,0.00,WUHU216HW,2013-04-01 21:40:00,
2013-04-01 16:45:00,36.2,15.8,29.61,WNW,293,13.9,14.1,43,0.00,,,0.00,WUHU216HW,2013-04-01 21:45:00,
2013-04-01 16:50:00,36.2,15.8,29.61,NW,315,10.3,14.3,43,0.00,,,0.00,WUHU216HW,2013-04-01 21:50:00,
2013-04-01 16:55:00,36.0,15.6,29.61,NW,315,8.1,14.3,43,0.00,,,0.00,WUHU216HW,2013-04-01 21:55:00,
2013-04-01 17:00:00,35.6,15.2,29.61,NW,315,13.6,13.6,43,0.00,,,0.00,WUHU216HW,2013-04-01 22:00:00,
2013-04-01 17:05:00,35.6,15.8,29.61,WSW,248,9.8,13.6,44,0.00,,,0.00,WUHU216HW,2013-04-01 22:05:00,
2013-04-01 17:10:00,35.3,15.4,29.61,WSW,248,12.8,16.3,44,0.00,,,0.00,WUHU216HW,2013-04-01 22:10:00,
2013-04-01 17:15:00,35.1,15.3,29.61,NW,315,8.5,16.3,44,0.00,,,0.00,WUHU216HW,2013-04-01 22:15:00,
2013-04-01 17:20:00,35.1,15.3,29.61,NW,315,9.2,15.2,44,0.00,,,0.00,WUHU216HW,2013-04-01 22:20:00,
2013-04-01 17:25:00,34.7,15.0,29.62,NW,315,14.3,15.2,44,0.00,,,0.00,WUHU216HW,2013-04-01 22:25:00,
2013-04-01 17:30:00,34.2,15.0,29.62,NNW,338,7.6,14.3,45,0.00,,,0.00,WUHU216HW,2013-04-01 22:30:00,
2013-04-01 17:35:00,34.2,15.0,29.62,NNW,338,11.4,14.3,45,0.00,,,0.00,WUHU216HW,2013-04-01 22:35:00,
2013-04-01 17:40:00,34.2,15.0,29.62,NNW,338,11.4,14.3,45,0.00,,,0.00,WUHU216HW,2013-04-01 22:40:00,
2013-04-01 17:45:00,34.2,15.0,29.62,NNW,338,11.4,11.4,45,0.00,,,0.00,WUHU216HW,2013-04-01 22:45:00,
2013-04-01 17:50:00,34.2,15.0,29.62,NNW,338,11.4,11.4,45,0.00,,,0.00,WUHU216HW,2013-04-01 22:50:00,
2013-04-01 17:55:00,36.4,16.4,29.62,NNW,338,8.3,11.4,44,0.00,,,0.00,WUHU216HW,2013-04-01 22:55:00,
2013-04-01 18:00:00,37.1,17.6,29.62,NW,315,15.4,15.4,45,0.00,,,0.00,WUHU216HW,2013-04-01 23:00:00,
2013-04-01 18:05:00,36.7,16.7,29.63,WNW,293,10.5,15.4,44,0.00,,,0.00,WUHU216HW,2013-04-01 23:05:00,
2013-04-01 18:10:00,35.1,15.3,29.63,NW,315,12.8,14.5,44,0.00,,,0.00,WUHU216HW,2013-04-01 23:10:00,
2013-04-01 18:15:00,33.8,15.1,29.63,NW,315,9.8,12.8,46,0.00,,,0.00,WUHU216HW,2013-04-01 23:15:00,
2013-04-01 18:20:00,33.3,15.1,29.63,WNW,293,9.6,12.8,47,0.00,,,0.00,WUHU216HW,2013-04-01 23:20:00,
2013-04-01 18:25:00,32.9,15.8,29.63,West,270,11.4,11.4,49,0.00,,,0.00,WUHU216HW,2013-04-01 23:25:00,
2013-04-01 18:30:00,32.8,15.1,29.63,NW,315,9.8,14.3,48,0.00,,,0.00,WUHU216HW,2013-04-01 23:30:00,
2013-04-01 18:35:00,32.6,15.9,29.63,NW,315,8.5,14.3,50,0.00,,,0.00,WUHU216HW,2013-04-01 23:35:00,
2013-04-01 18:40:00,32.6,15.9,29.63,NW,315,8.5,11.4,50,0.00,,,0.00,WUHU216HW,2013-04-01 23:40:00,
2013-04-01 18:45:00,32.6,15.9,29.63,NW,315,8.5,8.5,50,0.00,,,0.00,WUHU216HW,2013-04-01 23:45:00,
2013-04-01 18:50:00,31.7,14.1,29.63,NW,315,8.7,8.7,48,0.00,,,0.00,WUHU216HW,2013-04-01 23:50:00,
2013-04-01 18:55:00,31.5,14.0,29.63,NNW,338,5.1,16.6,48,0.00,,,0.00,WUHU216HW,2013-04-01 23:55:00,
2013-04-01 19:00:00,31.1,13.7,29.63,NW,315,7.6,16.6,48,0.00,,,0.00,WUHU216HW,2013-04-02 00:00:00,
2013-04-01 19:05:00,31.0,14.5,29.63,NNW,338,12.1,12.1,50,0.00,,,0.00,WUHU216HW,2013-04-02 00:05:00,
2013-04-01 19:10:00,30.8,13.9,29.63,NW,315,9.6,12.3,49,0.00,,,0.00,WUHU216HW,2013-04-02 00:10:00,
2013-04-01 19:15:00,30.6,13.7,29.63,NW,315,6.9,12.3,49,0.00,,,0.00,WUHU216HW,2013-04-02 00:15:00,
2013-04-01 19:20:00,30.4,14.1,29.63,NW,315,7.6,10.5,50,0.00,,,0.00,WUHU216HW,2013-04-02 00:20:00,
2013-04-01 19:25:00,30.2,13.3,29.63,NW,315,6.7,10.5,49,0.00,,,0.00,WUHU216HW,2013-04-02 00:25:00,
2013-04-01 19:30:00,30.1,13.7,29.63,West,270,8.5,11.6,50,0.00,,,0.00,WUHU216HW,2013-04-02 00:30:00,
2013-04-01 19:35:00,30.1,14.1,29.64,NW,315,10.1,11.6,51,0.00,,,0.00,WUHU216HW,2013-04-02 00:35:00,
2013-04-01 19:40:00,29.9,14.0,29.64,NNW,338,5.1,10.1,51,0.00,,,0.00,WUHU216HW,2013-04-02 00:40:00,
2013-04-01 19:45:00,29.9,14.4,29.64,NW,315,4.0,10.1,52,0.00,,,0.00,WUHU216HW,2013-04-02 00:45:00,
2013-04-01 19:50:00,29.7,14.2,29.64,North,0,6.5,6.5,52,0.00,,,0.00,WUHU216HW,2013-04-02 00:50:00,
2013-04-01 19:55:00,29.5,14.0,29.64,NNW,338,5.4,6.5,52,0.00,,,0.00,WUHU216HW,2013-04-02 00:55:00,
2013-04-01 20:00:00,29.5,14.5,29.64,NNW,338,4.7,8.1,53,0.00,,,0.00,WUHU216HW,2013-04-02 01:00:00,
2013-04-01 20:05:00,29.3,14.7,29.65,NW,315,3.4,8.1,54,0.00,,,0.00,WUHU216HW,2013-04-02 01:05:00,
2013-04-01 20:10:00,29.2,14.6,29.65,NW,315,6.0,7.6,54,0.00,,,0.00,WUHU216HW,2013-04-02 01:10:00,
2013-04-01 20:15:00,29.2,14.6,29.65,NW,315,4.5,7.6,54,0.00,,,0.00,WUHU216HW,2013-04-02 01:15:00,
2013-04-01 20:20:00,29.2,14.6,29.65,NW,315,3.8,7.2,54,0.00,,,0.00,WUHU216HW,2013-04-02 01:20:00,
2013-04-01 20:25:00,29.0,14.4,29.65,NW,315,4.3,7.2,54,0.00,,,0.00,WUHU216HW,2013-04-02 01:25:00,
2013-04-01 20:30:00,28.8,14.2,29.65,NW,315,2.0,6.0,54,0.00,,,0.00,WUHU216HW,2013-04-02 01:30:00,
2013-04-01 20:35:00,28.8,14.2,29.66,West,270,2.5,6.0,54,0.00,,,0.00,WUHU216HW,2013-04-02 01:35:00,
2013-04-01 20:40:00,28.6,14.9,29.66,NW,315,4.7,8.3,56,0.00,,,0.00,WUHU216HW,2013-04-02 01:40:00,
2013-04-01 20:45:00,28.4,14.8,29.66,NW,315,3.6,8.3,56,0.00,,,0.00,WUHU216HW,2013-04-02 01:45:00,
2013-04-01 20:50:00,28.4,15.6,29.66,NW,315,4.5,8.1,58,0.00,,,0.00,WUHU216HW,2013-04-02 01:50:00,
2013-04-01 20:55:00,28.4,15.9,29.66,WNW,293,3.4,6.5,59,0.00,,,0.00,WUHU216HW,2013-04-02 01:55:00,
2013-04-01 21:00:00,28.4,15.9,29.66,NNW,338,5.1,6.9,59,0.00,,,0.00,WUHU216HW,2013-04-02 02:00:00,
2013-04-01 21:05:00,28.4,15.9,29.66,West,270,5.8,7.8,59,0.00,,,0.00,WUHU216HW,2013-04-02 02:05:00,
2013-04-01 21:10:00,28.3,16.2,29.67,NW,315,5.6,7.8,60,0.00,,,0.00,WUHU216HW,2013-04-02 02:10:00,
2013-04-01 21:15:00,28.1,16.4,29.67,NW,315,5.8,6.9,61,0.00,,,0.00,WUHU216HW,2013-04-02 02:15:00,
2013-04-01 21:20:00,28.1,16.0,29.67,WNW,293,5.8,8.5,60,0.00,,,0.00,WUHU216HW,2013-04-02 02:20:00,
2013-04-01 21:25:00,28.1,16.0,29.67,WNW,293,4.0,8.5,60,0.00,,,0.00,WUHU216HW,2013-04-02 02:25:00,
2013-04-01 21:30:00,27.9,15.8,29.67,WNW,293,5.4,7.6,60,0.00,,,0.00,WUHU216HW,2013-04-02 02:30:00,
2013-04-01 21:35:00,27.9,16.2,29.67,NW,315,4.9,7.6,61,0.00,,,0.00,WUHU216HW,2013-04-02 02:35:00,
2013-04-01 21:40:00,27.7,16.0,29.67,WNW,293,5.8,8.1,61,0.00,,,0.00,WUHU216HW,2013-04-02 02:40:00,
2013-04-01 21:45:00,27.7,16.4,29.67,NW,315,3.4,8.1,62,0.00,,,0.00,WUHU216HW,2013-04-02 02:45:00,
2013-04-01 21:50:00,27.7,16.4,29.68,WNW,293,2.5,6.7,62,0.00,,,0.00,WUHU216HW,2013-04-02 02:50:00,
2013-04-01 21:55:00,27.7,16.4,29.68,WNW,293,6.0,6.7,62,0.00,,,0.00,WUHU216HW,2013-04-02 02:55:00,
2013-04-01 22:00:00,27.7,16.4,29.68,NW,315,8.7,8.7,62,0.00,,,0.00,WUHU216HW,2013-04-02 03:00:00,
2013-04-01 22:05:00,27.7,16.4,29.68,WNW,293,8.7,8.7,62,0.00,,,0.00,WUHU216HW,2013-04-02 03:05:00,
2013-04-01 22:10:00,27.5,16.2,29.68,WNW,293,9.4,11.9,62,0.00,,,0.00,WUHU216HW,2013-04-02 03:10:00,
2013-04-01 22:15:00,27.5,16.2,29.68,NNW,338,9.8,11.9,62,0.00,,,0.00,WUHU216HW,2013-04-02 03:15:00,
2013-04-01 22:20:00,27.5,16.2,29.68,NW,315,7.8,9.8,62,0.00,,,0.00,WUHU216HW,2013-04-02 03:20:00,
2013-04-01 22:25:00,27.4,16.0,29.68,WNW,293,7.2,9.8,62,0.00,,,0.00,WUHU216HW,2013-04-02 03:25:00,
2013-04-01 22:30:00,27.4,16.0,29.68,West,270,5.6,8.1,62,0.00,,,0.00,WUHU216HW,2013-04-02 03:30:00,
2013-04-01 22:35:00,27.2,15.8,29.68,NW,315,6.9,11.9,62,0.00,,,0.00,WUHU216HW,2013-04-02 03:35:00,
2013-04-01 22:40:00,27.2,15.8,29.68,NW,315,9.2,11.9,62,0.00,,,0.00,WUHU216HW,2013-04-02 03:40:00,
2013-04-01 22:45:00,27.2,15.8,29.68,NW,315,7.8,9.2,62,0.00,,,0.00,WUHU216HW,2013-04-02 03:45:00,
2013-04-01 22:50:00,27.2,15.8,29.68,NW,315,8.9,9.2,62,0.00,,,0.00,WUHU216HW,2013-04-02 03:50:00,
2013-04-01 22:55:00,27.0,15.7,29.68,WNW,293,6.9,9.2,62,0.00,,,0.00,WUHU216HW,2013-04-02 03:55:00,
2013-04-01 23:00:00,27.2,15.8,29.68,SW,225,5.6,9.2,62,0.00,,,0.00,WUHU216HW,2013-04-02 04:00:00,
2013-04-01 23:05:00,27.0,15.7,29.68,NW,315,6.9,10.5,62,0.00,,,0.00,WUHU216HW,2013-04-02 04:05:00,
2013-04-01 23:10:00,27.0,15.7,29.68,NW,315,8.3,10.5,62,0.00,,,0.00,WUHU216HW,2013-04-02 04:10:00,
2013-04-01 23:15:00,27.0,15.7,29.68,NW,315,7.6,10.5,62,0.00,,,0.00,WUHU216HW,2013-04-02 04:15:00,
2013-04-01 23:20:00,27.0,15.7,29.68,NW,315,6.5,10.5,62,0.00,,,0.00,WUHU216HW,2013-04-02 04:20:00,
2013-04-01 23:25:00,27.0,15.7,29.68,WNW,293,6.0,8.5,62,0.00,,,0.00,WUHU216HW,2013-04-02 04:25:00,
2013-04-01 23:30:00,26.8,15.5,29.68,WNW,293,4.5,7.2,62,0.00,,,0.00,WUHU216HW,2013-04-02 04:30:00,
2013-04-01 23:35:00,26.8,15.5,29.68,WNW,293,4.7,7.8,62,0.00,,,0.00,WUHU216HW,2013-04-02 04:35:00,
2013-04-01 23:40:00,26.8,15.5,29.68,WNW,293,8.7,9.6,62,0.00,,,0.00,WUHU216HW,2013-04-02 04:40:00,
2013-04-01 23:45:00,26.6,15.3,29.68,WNW,293,4.5,9.6,62,0.00,,,0.00,WUHU216HW,2013-04-02 04:45:00,
2013-04-01 23:50:00,26.6,15.3,29.68,WNW,293,4.5,8.7,62,0.00,,,0.00,WUHU216HW,2013-04-02 04:50:00,